sensor_id;sensor_type;location;lat;lon;timestamp;P1;durP1;ratioP1;P2;durP2;ratioP2
69765;SDS011;57039;48.014;21.384;2023-03-24T00:00:13;14.52;;;8.70;;
69765;SDS011;57039;48.014;21.384;2023-03-24T00:01:17;18.80;;;8.88;;
69765;SDS011;57039;48.014;21.384;2023-03-24T00:02:20;15.52;;;9.25;;
69765;SDS011;57039;48.014;21.384;2023-03-24T00:03:22;17.05;;;9.60;;
69765;SDS011;57039;48.014;21.384;2023-03-24T00:04:27;14.52;;;8.50;;
69765;SDS011;57039;48.014;21.384;2023-03-24T00:05:29;16.97;;;8.33;;
69765;SDS011;57039;48.014;21.384;2023-03-24T00:06:32;14.37;;;9.03;;
69765;SDS011;57039;48.014;21.384;2023-03-24T00:07:36;16.10;;;8.75;;
69765;SDS011;57039;48.014;21.384;2023-03-24T00:08:41;13.85;;;8.50;;
69765;SDS011;57039;48.014;21.384;2023-03-24T00:09:45;14.15;;;8.95;;
69765;SDS011;57039;48.014;21.384;2023-03-24T00:10:47;16.10;;;9.60;;
69765;SDS011;57039;48.014;21.384;2023-03-24T00:11:50;14.63;;;8.93;;
69765;SDS011;57039;48.014;21.384;2023-03-24T00:12:52;14.27;;;8.95;;
69765;SDS011;57039;48.014;21.384;2023-03-24T00:13:55;17.40;;;8.85;;
69765;SDS011;57039;48.014;21.384;2023-03-24T00:14:59;14.02;;;8.98;;
69765;SDS011;57039;48.014;21.384;2023-03-24T00:17:07;13.70;;;8.30;;
69765;SDS011;57039;48.014;21.384;2023-03-24T00:18:14;15.90;;;8.63;;
69765;SDS011;57039;48.014;21.384;2023-03-24T00:19:17;15.88;;;9.27;;
69765;SDS011;57039;48.014;21.384;2023-03-24T00:20:21;14.95;;;9.60;;
69765;SDS011;57039;48.014;21.384;2023-03-24T00:21:24;14.13;;;9.30;;
69765;SDS011;57039;48.014;21.384;2023-03-24T00:22:27;16.50;;;8.95;;
69765;SDS011;57039;48.014;21.384;2023-03-24T00:23:30;16.33;;;9.35;;
69765;SDS011;57039;48.014;21.384;2023-03-24T00:24:35;14.30;;;9.48;;
69765;SDS011;57039;48.014;21.384;2023-03-24T00:25:39;19.85;;;9.25;;
69765;SDS011;57039;48.014;21.384;2023-03-24T00:26:41;14.70;;;9.33;;
69765;SDS011;57039;48.014;21.384;2023-03-24T00:27:44;14.10;;;8.17;;
69765;SDS011;57039;48.014;21.384;2023-03-24T00:28:50;13.98;;;8.27;;
69765;SDS011;57039;48.014;21.384;2023-03-24T00:29:52;15.10;;;9.15;;
69765;SDS011;57039;48.014;21.384;2023-03-24T00:30:55;15.57;;;8.98;;
69765;SDS011;57039;48.014;21.384;2023-03-24T00:31:58;15.30;;;9.02;;
69765;SDS011;57039;48.014;21.384;2023-03-24T00:33:00;13.40;;;8.48;;
69765;SDS011;57039;48.014;21.384;2023-03-24T00:34:03;19.52;;;9.20;;
69765;SDS011;57039;48.014;21.384;2023-03-24T00:35:08;15.80;;;9.05;;
69765;SDS011;57039;48.014;21.384;2023-03-24T00:36:11;14.52;;;9.43;;
69765;SDS011;57039;48.014;21.384;2023-03-24T00:37:14;15.10;;;9.83;;
69765;SDS011;57039;48.014;21.384;2023-03-24T00:38:17;15.03;;;8.73;;
69765;SDS011;57039;48.014;21.384;2023-03-24T00:39:23;15.55;;;9.07;;
69765;SDS011;57039;48.014;21.384;2023-03-24T00:40:26;16.65;;;9.75;;
69765;SDS011;57039;48.014;21.384;2023-03-24T00:41:29;15.07;;;9.90;;
69765;SDS011;57039;48.014;21.384;2023-03-24T00:42:32;16.83;;;9.38;;
69765;SDS011;57039;48.014;21.384;2023-03-24T00:43:35;17.90;;;9.52;;
69765;SDS011;57039;48.014;21.384;2023-03-24T00:44:38;15.95;;;9.85;;
69765;SDS011;57039;48.014;21.384;2023-03-24T00:45:40;15.18;;;9.50;;
69765;SDS011;57039;48.014;21.384;2023-03-24T00:46:49;14.27;;;9.13;;
69765;SDS011;57039;48.014;21.384;2023-03-24T00:47:58;16.73;;;9.50;;
69765;SDS011;57039;48.014;21.384;2023-03-24T00:49:02;16.13;;;9.20;;
69765;SDS011;57039;48.014;21.384;2023-03-24T00:50:08;15.75;;;9.23;;
69765;SDS011;57039;48.014;21.384;2023-03-24T00:51:11;14.13;;;9.30;;
69765;SDS011;57039;48.014;21.384;2023-03-24T00:52:15;16.17;;;9.68;;
69765;SDS011;57039;48.014;21.384;2023-03-24T00:53:22;15.05;;;9.43;;
69765;SDS011;57039;48.014;21.384;2023-03-24T00:54:27;15.30;;;9.32;;
69765;SDS011;57039;48.014;21.384;2023-03-24T00:55:33;16.58;;;9.35;;
69765;SDS011;57039;48.014;21.384;2023-03-24T00:56:36;15.50;;;9.40;;
69765;SDS011;57039;48.014;21.384;2023-03-24T00:57:42;18.95;;;9.52;;
69765;SDS011;57039;48.014;21.384;2023-03-24T00:58:51;14.73;;;9.30;;
69765;SDS011;57039;48.014;21.384;2023-03-24T00:59:55;15.87;;;9.37;;
69765;SDS011;57039;48.014;21.384;2023-03-24T01:01:03;13.95;;;8.88;;
69765;SDS011;57039;48.014;21.384;2023-03-24T01:02:07;14.57;;;9.73;;
69765;SDS011;57039;48.014;21.384;2023-03-24T01:03:13;15.02;;;9.20;;
69765;SDS011;57039;48.014;21.384;2023-03-24T01:04:16;16.48;;;9.25;;
69765;SDS011;57039;48.014;21.384;2023-03-24T01:05:20;16.42;;;8.88;;
69765;SDS011;57039;48.014;21.384;2023-03-24T01:06:23;15.55;;;9.43;;
69765;SDS011;57039;48.014;21.384;2023-03-24T01:07:26;13.98;;;9.32;;
69765;SDS011;57039;48.014;21.384;2023-03-24T01:08:29;17.77;;;10.18;;
69765;SDS011;57039;48.014;21.384;2023-03-24T01:09:35;18.90;;;9.57;;
69765;SDS011;57039;48.014;21.384;2023-03-24T01:10:38;15.63;;;9.90;;
69765;SDS011;57039;48.014;21.384;2023-03-24T01:11:43;17.42;;;9.27;;
69765;SDS011;57039;48.014;21.384;2023-03-24T01:12:46;17.23;;;10.18;;
69765;SDS011;57039;48.014;21.384;2023-03-24T01:13:50;14.43;;;9.43;;
69765;SDS011;57039;48.014;21.384;2023-03-24T01:14:53;14.73;;;9.52;;
69765;SDS011;57039;48.014;21.384;2023-03-24T01:15:56;14.40;;;9.18;;
69765;SDS011;57039;48.014;21.384;2023-03-24T01:16:59;19.02;;;9.63;;
69765;SDS011;57039;48.014;21.384;2023-03-24T01:18:02;15.20;;;9.45;;
69765;SDS011;57039;48.014;21.384;2023-03-24T01:19:04;15.18;;;9.65;;
69765;SDS011;57039;48.014;21.384;2023-03-24T01:20:09;14.37;;;9.20;;
69765;SDS011;57039;48.014;21.384;2023-03-24T01:21:13;13.77;;;9.17;;
69765;SDS011;57039;48.014;21.384;2023-03-24T01:22:15;15.30;;;9.65;;
69765;SDS011;57039;48.014;21.384;2023-03-24T01:23:19;14.75;;;9.35;;
69765;SDS011;57039;48.014;21.384;2023-03-24T01:24:22;13.43;;;8.93;;
69765;SDS011;57039;48.014;21.384;2023-03-24T01:25:27;15.27;;;10.07;;
69765;SDS011;57039;48.014;21.384;2023-03-24T01:26:30;15.13;;;9.65;;
69765;SDS011;57039;48.014;21.384;2023-03-24T01:27:33;16.10;;;11.02;;
69765;SDS011;57039;48.014;21.384;2023-03-24T01:28:35;16.98;;;10.18;;
69765;SDS011;57039;48.014;21.384;2023-03-24T01:29:42;16.42;;;10.20;;
69765;SDS011;57039;48.014;21.384;2023-03-24T01:30:44;15.73;;;9.77;;
69765;SDS011;57039;48.014;21.384;2023-03-24T01:31:48;16.57;;;10.63;;
69765;SDS011;57039;48.014;21.384;2023-03-24T01:32:51;15.32;;;9.20;;
69765;SDS011;57039;48.014;21.384;2023-03-24T01:33:54;16.92;;;9.80;;
69765;SDS011;57039;48.014;21.384;2023-03-24T01:34:57;16.42;;;9.85;;
69765;SDS011;57039;48.014;21.384;2023-03-24T01:35:59;15.93;;;9.93;;
69765;SDS011;57039;48.014;21.384;2023-03-24T01:37:02;17.55;;;9.45;;
69765;SDS011;57039;48.014;21.384;2023-03-24T01:38:09;14.50;;;9.35;;
69765;SDS011;57039;48.014;21.384;2023-03-24T01:39:12;16.17;;;10.13;;
69765;SDS011;57039;48.014;21.384;2023-03-24T01:40:25;16.35;;;10.05;;
69765;SDS011;57039;48.014;21.384;2023-03-24T01:41:33;14.23;;;9.60;;
69765;SDS011;57039;48.014;21.384;2023-03-24T01:42:37;15.70;;;9.27;;
69765;SDS011;57039;48.014;21.384;2023-03-24T01:43:39;14.90;;;9.88;;
69765;SDS011;57039;48.014;21.384;2023-03-24T01:44:44;15.20;;;9.98;;
69765;SDS011;57039;48.014;21.384;2023-03-24T01:46:53;16.35;;;9.70;;
69765;SDS011;57039;48.014;21.384;2023-03-24T01:47:56;15.43;;;9.50;;
69765;SDS011;57039;48.014;21.384;2023-03-24T01:49:00;16.02;;;10.13;;
69765;SDS011;57039;48.014;21.384;2023-03-24T01:50:04;17.05;;;10.15;;
69765;SDS011;57039;48.014;21.384;2023-03-24T01:52:10;16.50;;;9.80;;
69765;SDS011;57039;48.014;21.384;2023-03-24T01:53:15;16.83;;;10.17;;
69765;SDS011;57039;48.014;21.384;2023-03-24T01:55:21;15.55;;;9.95;;
69765;SDS011;57039;48.014;21.384;2023-03-24T01:56:24;15.60;;;10.07;;
69765;SDS011;57039;48.014;21.384;2023-03-24T01:57:50;15.13;;;10.07;;
69765;SDS011;57039;48.014;21.384;2023-03-24T01:58:54;15.45;;;9.82;;
69765;SDS011;57039;48.014;21.384;2023-03-24T01:59:59;15.88;;;10.40;;
69765;SDS011;57039;48.014;21.384;2023-03-24T02:01:14;14.57;;;9.90;;
69765;SDS011;57039;48.014;21.384;2023-03-24T02:02:19;17.80;;;10.30;;
69765;SDS011;57039;48.014;21.384;2023-03-24T02:03:23;16.57;;;9.77;;
69765;SDS011;57039;48.014;21.384;2023-03-24T02:04:29;15.80;;;10.30;;
69765;SDS011;57039;48.014;21.384;2023-03-24T02:05:34;16.85;;;10.35;;
69765;SDS011;57039;48.014;21.384;2023-03-24T02:06:38;21.70;;;10.60;;
69765;SDS011;57039;48.014;21.384;2023-03-24T02:09:56;16.20;;;10.27;;
69765;SDS011;57039;48.014;21.384;2023-03-24T02:10:59;14.93;;;9.48;;
69765;SDS011;57039;48.014;21.384;2023-03-24T02:12:03;16.85;;;10.55;;
69765;SDS011;57039;48.014;21.384;2023-03-24T02:13:07;17.65;;;10.90;;
69765;SDS011;57039;48.014;21.384;2023-03-24T02:14:11;18.93;;;10.80;;
69765;SDS011;57039;48.014;21.384;2023-03-24T02:15:15;17.90;;;10.87;;
69765;SDS011;57039;48.014;21.384;2023-03-24T02:16:32;17.95;;;10.60;;
69765;SDS011;57039;48.014;21.384;2023-03-24T02:23:19;21.52;;;10.98;;
69765;SDS011;57039;48.014;21.384;2023-03-24T02:26:47;18.67;;;10.93;;
69765;SDS011;57039;48.014;21.384;2023-03-24T02:36:10;18.27;;;11.73;;
69765;SDS011;57039;48.014;21.384;2023-03-24T02:37:27;21.23;;;11.77;;
69765;SDS011;57039;48.014;21.384;2023-03-24T02:39:52;19.08;;;11.18;;
69765;SDS011;57039;48.014;21.384;2023-03-24T02:43:48;20.27;;;11.80;;
69765;SDS011;57039;48.014;21.384;2023-03-24T02:47:27;19.80;;;12.40;;
69765;SDS011;57039;48.014;21.384;2023-03-24T02:50:12;19.03;;;11.53;;
69765;SDS011;57039;48.014;21.384;2023-03-24T02:51:20;17.87;;;11.53;;
69765;SDS011;57039;48.014;21.384;2023-03-24T02:52:39;21.52;;;11.90;;
69765;SDS011;57039;48.014;21.384;2023-03-24T02:53:53;18.55;;;11.85;;
69765;SDS011;57039;48.014;21.384;2023-03-24T02:54:58;21.52;;;12.63;;
69765;SDS011;57039;48.014;21.384;2023-03-24T02:56:12;19.40;;;12.25;;
69765;SDS011;57039;48.014;21.384;2023-03-24T02:57:19;20.70;;;12.18;;
69765;SDS011;57039;48.014;21.384;2023-03-24T02:58:34;20.88;;;12.27;;
69765;SDS011;57039;48.014;21.384;2023-03-24T02:59:40;20.42;;;12.07;;
69765;SDS011;57039;48.014;21.384;2023-03-24T03:00:46;20.50;;;12.27;;
69765;SDS011;57039;48.014;21.384;2023-03-24T03:01:59;18.83;;;12.23;;
69765;SDS011;57039;48.014;21.384;2023-03-24T03:03:07;21.00;;;12.63;;
69765;SDS011;57039;48.014;21.384;2023-03-24T03:04:14;20.65;;;12.93;;
69765;SDS011;57039;48.014;21.384;2023-03-24T03:05:20;19.42;;;12.48;;
69765;SDS011;57039;48.014;21.384;2023-03-24T03:06:29;18.27;;;12.45;;
69765;SDS011;57039;48.014;21.384;2023-03-24T03:07:34;20.20;;;11.95;;
69765;SDS011;57039;48.014;21.384;2023-03-24T03:08:42;19.62;;;12.13;;
69765;SDS011;57039;48.014;21.384;2023-03-24T03:11:04;22.02;;;12.45;;
69765;SDS011;57039;48.014;21.384;2023-03-24T03:12:08;21.25;;;13.15;;
69765;SDS011;57039;48.014;21.384;2023-03-24T03:13:16;20.60;;;12.70;;
69765;SDS011;57039;48.014;21.384;2023-03-24T03:15:25;22.90;;;12.68;;
69765;SDS011;57039;48.014;21.384;2023-03-24T03:17:41;21.00;;;12.77;;
69765;SDS011;57039;48.014;21.384;2023-03-24T03:18:47;19.25;;;12.55;;
69765;SDS011;57039;48.014;21.384;2023-03-24T03:19:53;18.23;;;11.95;;
69765;SDS011;57039;48.014;21.384;2023-03-24T03:21:00;20.65;;;13.07;;
69765;SDS011;57039;48.014;21.384;2023-03-24T03:22:05;18.12;;;12.23;;
69765;SDS011;57039;48.014;21.384;2023-03-24T03:23:10;21.17;;;12.43;;
69765;SDS011;57039;48.014;21.384;2023-03-24T03:24:27;21.27;;;11.73;;
69765;SDS011;57039;48.014;21.384;2023-03-24T03:25:35;19.60;;;11.60;;
69765;SDS011;57039;48.014;21.384;2023-03-24T03:26:43;18.50;;;11.73;;
69765;SDS011;57039;48.014;21.384;2023-03-24T03:27:47;21.55;;;12.15;;
69765;SDS011;57039;48.014;21.384;2023-03-24T03:28:51;18.83;;;12.40;;
69765;SDS011;57039;48.014;21.384;2023-03-24T03:30:02;20.48;;;12.02;;
69765;SDS011;57039;48.014;21.384;2023-03-24T03:31:10;19.35;;;12.77;;
69765;SDS011;57039;48.014;21.384;2023-03-24T03:32:17;22.20;;;12.68;;
69765;SDS011;57039;48.014;21.384;2023-03-24T03:33:24;21.17;;;12.43;;
69765;SDS011;57039;48.014;21.384;2023-03-24T03:34:35;20.62;;;13.05;;
69765;SDS011;57039;48.014;21.384;2023-03-24T03:37:19;22.63;;;12.87;;
69765;SDS011;57039;48.014;21.384;2023-03-24T03:38:31;18.23;;;12.37;;
69765;SDS011;57039;48.014;21.384;2023-03-24T03:39:45;24.52;;;13.15;;
69765;SDS011;57039;48.014;21.384;2023-03-24T03:40:50;20.37;;;12.70;;
69765;SDS011;57039;48.014;21.384;2023-03-24T03:41:54;19.45;;;12.50;;
69765;SDS011;57039;48.014;21.384;2023-03-24T03:42:57;21.48;;;12.82;;
69765;SDS011;57039;48.014;21.384;2023-03-24T03:44:00;19.67;;;12.25;;
69765;SDS011;57039;48.014;21.384;2023-03-24T03:45:03;28.30;;;13.45;;
69765;SDS011;57039;48.014;21.384;2023-03-24T03:46:06;29.15;;;14.60;;
69765;SDS011;57039;48.014;21.384;2023-03-24T03:47:09;29.20;;;12.77;;
69765;SDS011;57039;48.014;21.384;2023-03-24T03:48:11;23.03;;;13.40;;
69765;SDS011;57039;48.014;21.384;2023-03-24T03:49:15;20.40;;;12.73;;
69765;SDS011;57039;48.014;21.384;2023-03-24T03:50:18;21.30;;;13.35;;
69765;SDS011;57039;48.014;21.384;2023-03-24T03:51:22;25.52;;;13.32;;
69765;SDS011;57039;48.014;21.384;2023-03-24T03:52:25;22.65;;;12.82;;
69765;SDS011;57039;48.014;21.384;2023-03-24T03:53:33;24.02;;;12.88;;
69765;SDS011;57039;48.014;21.384;2023-03-24T03:54:39;23.10;;;13.57;;
69765;SDS011;57039;48.014;21.384;2023-03-24T03:55:42;24.10;;;12.98;;
69765;SDS011;57039;48.014;21.384;2023-03-24T03:56:45;25.05;;;14.15;;
69765;SDS011;57039;48.014;21.384;2023-03-24T03:57:51;20.13;;;11.80;;
69765;SDS011;57039;48.014;21.384;2023-03-24T03:58:54;27.73;;;14.07;;
69765;SDS011;57039;48.014;21.384;2023-03-24T03:59:57;25.48;;;14.02;;
69765;SDS011;57039;48.014;21.384;2023-03-24T04:01:00;26.00;;;13.25;;
69765;SDS011;57039;48.014;21.384;2023-03-24T04:07:04;21.92;;;13.45;;
69765;SDS011;57039;48.014;21.384;2023-03-24T04:09:22;22.17;;;13.53;;
69765;SDS011;57039;48.014;21.384;2023-03-24T04:10:32;22.73;;;13.03;;
69765;SDS011;57039;48.014;21.384;2023-03-24T04:16:40;23.27;;;13.20;;
69765;SDS011;57039;48.014;21.384;2023-03-24T04:21:23;27.80;;;14.90;;
69765;SDS011;57039;48.014;21.384;2023-03-24T04:30:51;26.25;;;16.08;;
69765;SDS011;57039;48.014;21.384;2023-03-24T04:32:05;25.88;;;15.63;;
69765;SDS011;57039;48.014;21.384;2023-03-24T04:33:20;25.90;;;15.87;;
69765;SDS011;57039;48.014;21.384;2023-03-24T04:36:06;29.35;;;16.35;;
69765;SDS011;57039;48.014;21.384;2023-03-24T04:37:22;28.62;;;16.42;;
69765;SDS011;57039;48.014;21.384;2023-03-24T04:38:26;30.20;;;17.50;;
69765;SDS011;57039;48.014;21.384;2023-03-24T04:39:30;27.00;;;15.98;;
69765;SDS011;57039;48.014;21.384;2023-03-24T04:40:36;26.40;;;16.50;;
69765;SDS011;57039;48.014;21.384;2023-03-24T04:41:44;27.87;;;17.05;;
69765;SDS011;57039;48.014;21.384;2023-03-24T04:42:50;29.83;;;17.90;;
69765;SDS011;57039;48.014;21.384;2023-03-24T04:43:55;31.35;;;16.33;;
69765;SDS011;57039;48.014;21.384;2023-03-24T04:44:58;26.53;;;16.50;;
69765;SDS011;57039;48.014;21.384;2023-03-24T04:46:04;25.93;;;16.40;;
69765;SDS011;57039;48.014;21.384;2023-03-24T04:47:09;27.80;;;15.57;;
69765;SDS011;57039;48.014;21.384;2023-03-24T04:48:15;28.10;;;16.80;;
69765;SDS011;57039;48.014;21.384;2023-03-24T04:49:19;28.27;;;17.80;;
69765;SDS011;57039;48.014;21.384;2023-03-24T04:50:28;28.48;;;17.30;;
69765;SDS011;57039;48.014;21.384;2023-03-24T04:51:32;28.12;;;16.87;;
69765;SDS011;57039;48.014;21.384;2023-03-24T04:52:37;26.08;;;17.25;;
69765;SDS011;57039;48.014;21.384;2023-03-24T04:53:40;33.78;;;17.62;;
69765;SDS011;57039;48.014;21.384;2023-03-24T04:54:42;30.77;;;18.37;;
69765;SDS011;57039;48.014;21.384;2023-03-24T04:56:51;27.00;;;17.27;;
69765;SDS011;57039;48.014;21.384;2023-03-24T04:57:55;30.00;;;16.95;;
69765;SDS011;57039;48.014;21.384;2023-03-24T04:58:57;29.15;;;17.58;;
69765;SDS011;57039;48.014;21.384;2023-03-24T05:00:00;29.48;;;17.45;;
69765;SDS011;57039;48.014;21.384;2023-03-24T05:01:04;28.95;;;16.95;;
69765;SDS011;57039;48.014;21.384;2023-03-24T05:02:08;29.20;;;17.35;;
69765;SDS011;57039;48.014;21.384;2023-03-24T05:03:11;30.83;;;18.73;;
69765;SDS011;57039;48.014;21.384;2023-03-24T05:04:18;28.27;;;18.00;;
69765;SDS011;57039;48.014;21.384;2023-03-24T05:05:20;31.12;;;17.77;;
69765;SDS011;57039;48.014;21.384;2023-03-24T05:06:23;31.87;;;18.47;;
69765;SDS011;57039;48.014;21.384;2023-03-24T05:07:26;29.77;;;17.93;;
69765;SDS011;57039;48.014;21.384;2023-03-24T05:08:29;29.25;;;18.58;;
69765;SDS011;57039;48.014;21.384;2023-03-24T05:09:32;30.48;;;17.85;;
69765;SDS011;57039;48.014;21.384;2023-03-24T05:10:35;27.90;;;17.85;;
69765;SDS011;57039;48.014;21.384;2023-03-24T05:11:38;29.30;;;18.00;;
69765;SDS011;57039;48.014;21.384;2023-03-24T05:12:40;29.77;;;18.17;;
69765;SDS011;57039;48.014;21.384;2023-03-24T05:13:44;28.65;;;16.92;;
69765;SDS011;57039;48.014;21.384;2023-03-24T05:14:48;30.33;;;18.12;;
69765;SDS011;57039;48.014;21.384;2023-03-24T05:15:51;28.40;;;17.67;;
69765;SDS011;57039;48.014;21.384;2023-03-24T05:16:55;29.90;;;17.87;;
69765;SDS011;57039;48.014;21.384;2023-03-24T05:17:58;30.70;;;18.80;;
69765;SDS011;57039;48.014;21.384;2023-03-24T05:19:01;30.52;;;18.58;;
69765;SDS011;57039;48.014;21.384;2023-03-24T05:20:05;28.60;;;17.87;;
69765;SDS011;57039;48.014;21.384;2023-03-24T05:21:12;29.92;;;18.58;;
69765;SDS011;57039;48.014;21.384;2023-03-24T05:22:15;33.17;;;18.25;;
69765;SDS011;57039;48.014;21.384;2023-03-24T05:23:17;29.08;;;17.10;;
69765;SDS011;57039;48.014;21.384;2023-03-24T05:24:20;29.52;;;16.67;;
69765;SDS011;57039;48.014;21.384;2023-03-24T05:25:23;32.92;;;17.67;;
69765;SDS011;57039;48.014;21.384;2023-03-24T05:26:26;29.90;;;17.30;;
69765;SDS011;57039;48.014;21.384;2023-03-24T05:27:30;27.37;;;17.03;;
69765;SDS011;57039;48.014;21.384;2023-03-24T05:28:35;30.73;;;17.60;;
69765;SDS011;57039;48.014;21.384;2023-03-24T05:29:37;28.83;;;17.77;;
69765;SDS011;57039;48.014;21.384;2023-03-24T05:30:40;26.90;;;17.48;;
69765;SDS011;57039;48.014;21.384;2023-03-24T05:31:43;29.98;;;17.77;;
69765;SDS011;57039;48.014;21.384;2023-03-24T05:32:46;27.90;;;17.30;;
69765;SDS011;57039;48.014;21.384;2023-03-24T05:33:49;28.02;;;17.08;;
69765;SDS011;57039;48.014;21.384;2023-03-24T05:34:52;29.23;;;18.45;;
69765;SDS011;57039;48.014;21.384;2023-03-24T05:35:55;29.35;;;18.27;;
69765;SDS011;57039;48.014;21.384;2023-03-24T05:37:00;25.85;;;17.33;;
69765;SDS011;57039;48.014;21.384;2023-03-24T05:38:03;29.73;;;17.30;;
69765;SDS011;57039;48.014;21.384;2023-03-24T05:39:06;28.13;;;16.93;;
69765;SDS011;57039;48.014;21.384;2023-03-24T05:40:09;27.67;;;17.58;;
69765;SDS011;57039;48.014;21.384;2023-03-24T05:41:14;32.22;;;17.50;;
69765;SDS011;57039;48.014;21.384;2023-03-24T05:42:19;27.65;;;16.85;;
69765;SDS011;57039;48.014;21.384;2023-03-24T05:43:22;29.63;;;17.23;;
69765;SDS011;57039;48.014;21.384;2023-03-24T05:44:25;28.35;;;17.30;;
69765;SDS011;57039;48.014;21.384;2023-03-24T05:45:29;31.67;;;18.83;;
69765;SDS011;57039;48.014;21.384;2023-03-24T05:46:32;27.75;;;17.92;;
69765;SDS011;57039;48.014;21.384;2023-03-24T05:47:36;28.35;;;17.70;;
69765;SDS011;57039;48.014;21.384;2023-03-24T05:48:39;26.93;;;16.93;;
69765;SDS011;57039;48.014;21.384;2023-03-24T05:49:42;28.50;;;17.90;;
69765;SDS011;57039;48.014;21.384;2023-03-24T05:50:45;29.55;;;17.40;;
69765;SDS011;57039;48.014;21.384;2023-03-24T05:51:47;31.48;;;18.08;;
69765;SDS011;57039;48.014;21.384;2023-03-24T05:52:50;37.00;;;18.48;;
69765;SDS011;57039;48.014;21.384;2023-03-24T05:53:54;29.00;;;17.92;;
69765;SDS011;57039;48.014;21.384;2023-03-24T05:54:57;29.50;;;17.98;;
69765;SDS011;57039;48.014;21.384;2023-03-24T05:56:00;28.35;;;17.67;;
69765;SDS011;57039;48.014;21.384;2023-03-24T05:57:05;27.45;;;17.42;;
69765;SDS011;57039;48.014;21.384;2023-03-24T05:58:12;28.80;;;17.65;;
69765;SDS011;57039;48.014;21.384;2023-03-24T05:59:15;29.63;;;17.90;;
69765;SDS011;57039;48.014;21.384;2023-03-24T06:00:19;28.00;;;18.20;;
69765;SDS011;57039;48.014;21.384;2023-03-24T06:01:22;27.70;;;17.83;;
69765;SDS011;57039;48.014;21.384;2023-03-24T06:02:27;30.05;;;18.23;;
69765;SDS011;57039;48.014;21.384;2023-03-24T06:03:30;27.20;;;18.25;;
69765;SDS011;57039;48.014;21.384;2023-03-24T06:04:36;27.20;;;17.50;;
69765;SDS011;57039;48.014;21.384;2023-03-24T06:05:40;28.10;;;17.30;;
69765;SDS011;57039;48.014;21.384;2023-03-24T06:06:43;27.85;;;17.90;;
69765;SDS011;57039;48.014;21.384;2023-03-24T06:07:47;28.52;;;17.50;;
69765;SDS011;57039;48.014;21.384;2023-03-24T06:08:49;27.95;;;17.83;;
69765;SDS011;57039;48.014;21.384;2023-03-24T06:09:58;28.97;;;17.73;;
69765;SDS011;57039;48.014;21.384;2023-03-24T06:11:05;26.93;;;17.40;;
69765;SDS011;57039;48.014;21.384;2023-03-24T06:12:12;29.20;;;17.87;;
69765;SDS011;57039;48.014;21.384;2023-03-24T06:13:18;29.80;;;18.55;;
69765;SDS011;57039;48.014;21.384;2023-03-24T06:14:20;52.05;;;26.67;;
69765;SDS011;57039;48.014;21.384;2023-03-24T06:15:24;131.73;;;78.05;;
69765;SDS011;57039;48.014;21.384;2023-03-24T06:16:29;91.22;;;52.38;;
69765;SDS011;57039;48.014;21.384;2023-03-24T06:17:36;33.80;;;20.52;;
69765;SDS011;57039;48.014;21.384;2023-03-24T06:18:39;31.23;;;18.30;;
69765;SDS011;57039;48.014;21.384;2023-03-24T06:19:45;32.50;;;18.52;;
69765;SDS011;57039;48.014;21.384;2023-03-24T06:20:51;29.47;;;16.93;;
69765;SDS011;57039;48.014;21.384;2023-03-24T06:21:58;28.87;;;16.87;;
69765;SDS011;57039;48.014;21.384;2023-03-24T06:23:04;29.02;;;17.80;;
69765;SDS011;57039;48.014;21.384;2023-03-24T06:24:08;40.03;;;19.90;;
69765;SDS011;57039;48.014;21.384;2023-03-24T06:25:12;28.65;;;17.45;;
69765;SDS011;57039;48.014;21.384;2023-03-24T06:26:17;27.62;;;17.77;;
69765;SDS011;57039;48.014;21.384;2023-03-24T06:27:21;29.70;;;17.98;;
69765;SDS011;57039;48.014;21.384;2023-03-24T06:28:27;28.10;;;17.02;;
69765;SDS011;57039;48.014;21.384;2023-03-24T06:29:36;29.23;;;17.20;;
69765;SDS011;57039;48.014;21.384;2023-03-24T06:30:38;29.08;;;17.67;;
69765;SDS011;57039;48.014;21.384;2023-03-24T06:31:46;28.67;;;17.07;;
69765;SDS011;57039;48.014;21.384;2023-03-24T06:32:49;26.30;;;16.20;;
69765;SDS011;57039;48.014;21.384;2023-03-24T06:33:53;28.75;;;16.73;;
69765;SDS011;57039;48.014;21.384;2023-03-24T06:34:57;27.48;;;16.85;;
69765;SDS011;57039;48.014;21.384;2023-03-24T06:36:00;26.27;;;15.52;;
69765;SDS011;57039;48.014;21.384;2023-03-24T06:37:04;25.95;;;16.05;;
69765;SDS011;57039;48.014;21.384;2023-03-24T06:38:07;23.02;;;14.48;;
69765;SDS011;57039;48.014;21.384;2023-03-24T06:39:11;25.15;;;15.63;;
69765;SDS011;57039;48.014;21.384;2023-03-24T06:40:14;22.85;;;14.40;;
69765;SDS011;57039;48.014;21.384;2023-03-24T06:41:20;22.90;;;15.13;;
69765;SDS011;57039;48.014;21.384;2023-03-24T06:42:22;20.87;;;13.80;;
69765;SDS011;57039;48.014;21.384;2023-03-24T06:43:25;26.43;;;14.50;;
69765;SDS011;57039;48.014;21.384;2023-03-24T06:44:28;26.05;;;14.02;;
69765;SDS011;57039;48.014;21.384;2023-03-24T06:45:30;25.20;;;14.57;;
69765;SDS011;57039;48.014;21.384;2023-03-24T06:46:34;23.75;;;14.20;;
69765;SDS011;57039;48.014;21.384;2023-03-24T06:47:36;26.75;;;14.35;;
69765;SDS011;57039;48.014;21.384;2023-03-24T06:48:39;21.15;;;14.10;;
69765;SDS011;57039;48.014;21.384;2023-03-24T06:49:42;22.10;;;13.73;;
69765;SDS011;57039;48.014;21.384;2023-03-24T06:50:45;24.65;;;13.75;;
69765;SDS011;57039;48.014;21.384;2023-03-24T06:51:48;23.02;;;14.23;;
69765;SDS011;57039;48.014;21.384;2023-03-24T06:52:50;23.85;;;13.45;;
69765;SDS011;57039;48.014;21.384;2023-03-24T06:53:53;21.27;;;13.67;;
69765;SDS011;57039;48.014;21.384;2023-03-24T06:54:56;20.73;;;13.75;;
69765;SDS011;57039;48.014;21.384;2023-03-24T06:55:59;22.15;;;13.70;;
69765;SDS011;57039;48.014;21.384;2023-03-24T06:57:03;23.20;;;14.07;;
69765;SDS011;57039;48.014;21.384;2023-03-24T06:58:08;26.20;;;18.02;;
69765;SDS011;57039;48.014;21.384;2023-03-24T06:59:11;20.20;;;13.65;;
69765;SDS011;57039;48.014;21.384;2023-03-24T07:00:14;22.15;;;14.35;;
69765;SDS011;57039;48.014;21.384;2023-03-24T07:01:19;22.85;;;12.93;;
69765;SDS011;57039;48.014;21.384;2023-03-24T07:02:23;20.95;;;13.52;;
69765;SDS011;57039;48.014;21.384;2023-03-24T07:03:26;20.57;;;12.73;;
69765;SDS011;57039;48.014;21.384;2023-03-24T07:04:31;19.73;;;12.50;;
69765;SDS011;57039;48.014;21.384;2023-03-24T07:05:42;21.70;;;12.82;;
69765;SDS011;57039;48.014;21.384;2023-03-24T07:06:46;20.40;;;12.68;;
69765;SDS011;57039;48.014;21.384;2023-03-24T07:08:09;20.02;;;13.18;;
69765;SDS011;57039;48.014;21.384;2023-03-24T07:09:16;20.73;;;13.65;;
69765;SDS011;57039;48.014;21.384;2023-03-24T07:10:20;21.02;;;12.82;;
69765;SDS011;57039;48.014;21.384;2023-03-24T07:11:23;18.90;;;12.13;;
69765;SDS011;57039;48.014;21.384;2023-03-24T07:12:27;20.65;;;12.98;;
69765;SDS011;57039;48.014;21.384;2023-03-24T07:13:29;22.95;;;13.43;;
69765;SDS011;57039;48.014;21.384;2023-03-24T07:14:33;19.43;;;12.70;;
69765;SDS011;57039;48.014;21.384;2023-03-24T07:15:38;18.73;;;12.23;;
69765;SDS011;57039;48.014;21.384;2023-03-24T07:16:43;23.05;;;12.85;;
69765;SDS011;57039;48.014;21.384;2023-03-24T07:17:47;20.80;;;12.40;;